createdAt,value
2023-05-06T00:00:00.280Z,7.07
2023-05-06T00:02:31.248Z,14.05
2023-05-06T00:05:04.194Z,3.35
2023-05-06T00:07:35.308Z,10.63
2023-05-06T00:10:08.595Z,8.52
2023-05-06T00:12:39.579Z,6.25
2023-05-06T00:15:13.647Z,4.60
2023-05-06T00:17:44.286Z,10.90
2023-05-06T00:20:15.690Z,3.63
2023-05-06T00:22:46.246Z,13.05
2023-05-06T00:25:18.463Z,7.40
2023-05-06T00:27:48.947Z,6.68
2023-05-06T00:30:19.512Z,5.10
2023-05-06T00:32:50.030Z,2.38
2023-05-06T00:35:20.794Z,3.38
2023-05-06T00:37:58.741Z,7.90
2023-05-06T00:40:30.925Z,6.50
2023-05-06T00:43:01.385Z,7.47
2023-05-06T00:45:32.018Z,3.58
2023-05-06T00:48:02.657Z,9.90
2023-05-06T00:50:34.131Z,4.93
2023-05-06T00:53:06.789Z,13.95
2023-05-06T00:55:39.214Z,7.03
2023-05-06T00:58:10.101Z,3.40
2023-05-06T01:00:41.050Z,15.15
2023-05-06T01:03:11.602Z,9.88
2023-05-06T01:05:54.036Z,4.50
2023-05-06T01:08:32.407Z,5.32
2023-05-06T01:11:13.508Z,7.18
2023-05-06T01:13:51.386Z,3.42
2023-05-06T01:16:26.256Z,9.32
2023-05-06T01:18:58.658Z,4.35
2023-05-06T01:21:36.102Z,5.63
2023-05-06T01:24:08.723Z,7.35
2023-05-06T01:26:43.283Z,5.68
2023-05-06T01:29:17.756Z,9.57
2023-05-06T01:31:53.855Z,7.38
2023-05-06T01:34:30.950Z,3.78
2023-05-06T01:37:10.481Z,4.10
2023-05-06T01:39:44.293Z,3.77
2023-05-06T01:42:16.730Z,3.63
2023-05-06T01:44:47.660Z,5.38
2023-05-06T01:47:19.925Z,4.63
2023-05-06T01:49:51.163Z,7.55
2023-05-06T01:52:23.381Z,4.20
2023-05-06T01:54:55.538Z,4.75
2023-05-06T01:57:25.961Z,5.20
2023-05-06T01:59:56.636Z,2.83
2023-05-06T02:02:27.250Z,3.45
2023-05-06T02:04:57.764Z,3.95
2023-05-06T02:07:28.246Z,2.72
2023-05-06T02:10:00.628Z,2.67
2023-05-06T02:12:31.117Z,3.90
2023-05-06T02:15:01.660Z,2.42
2023-05-06T02:17:32.195Z,11.20
2023-05-06T02:20:02.611Z,2.58
2023-05-06T02:22:33.074Z,6.10
2023-05-06T02:25:05.165Z,1.80
2023-05-06T02:27:35.585Z,2.83
2023-05-06T02:30:06.158Z,2.63
2023-05-06T02:32:36.942Z,7.55
2023-05-06T02:35:08.401Z,5.57
2023-05-06T02:37:39.034Z,3.90
2023-05-06T02:40:12.287Z,4.53
2023-05-06T02:42:42.891Z,7.88
2023-05-06T02:45:14.294Z,5.32
2023-05-06T02:47:44.942Z,4.30
2023-05-06T02:50:15.463Z,3.60
2023-05-06T02:52:49.079Z,3.28
2023-05-06T02:55:21.449Z,4.57
2023-05-06T02:57:51.896Z,4.63
2023-05-06T03:00:23.155Z,5.82
2023-05-06T03:02:53.766Z,4.53
2023-05-06T03:05:24.336Z,3.95
2023-05-06T03:07:54.827Z,10.63
2023-05-06T03:10:27.026Z,8.73
2023-05-06T03:12:57.513Z,7.72
2023-05-06T03:15:28.126Z,5.53
2023-05-06T03:17:58.611Z,7.15
2023-05-06T03:20:29.732Z,4.78
2023-05-06T03:23:00.197Z,4.35
2023-05-06T03:25:32.467Z,8.10
2023-05-06T03:28:02.923Z,3.20
2023-05-06T03:30:33.434Z,3.60
2023-05-06T03:33:04.679Z,2.55
2023-05-06T03:35:35.330Z,3.67
2023-05-06T03:38:05.852Z,7.60
2023-05-06T03:40:38.232Z,2.90
2023-05-06T03:43:08.646Z,7.22
2023-05-06T03:45:39.854Z,2.35
2023-05-06T03:48:10.435Z,4.55
2023-05-06T03:50:41.190Z,29.45
2023-05-06T03:53:11.854Z,13.80
2023-05-06T03:55:44.440Z,8.23
2023-05-06T03:58:15.042Z,7.53
2023-05-06T04:00:45.478Z,7.18
2023-05-06T04:03:16.097Z,2.55
2023-05-06T04:05:46.661Z,2.65
2023-05-06T04:08:18.033Z,6.65
2023-05-06T04:10:50.171Z,3.42
2023-05-06T04:13:20.679Z,3.78
2023-05-06T04:15:52.184Z,2.50
2023-05-06T04:18:23.215Z,3.10
2023-05-06T04:20:53.577Z,8.18
2023-05-06T04:23:24.301Z,22.05
2023-05-06T04:25:56.653Z,4.22
2023-05-06T04:28:27.222Z,10.88
2023-05-06T04:30:57.719Z,9.93
2023-05-06T04:33:28.306Z,10.32
2023-05-06T04:35:58.886Z,4.63
2023-05-06T04:38:32.702Z,4.03
2023-05-06T04:41:04.829Z,8.93
2023-05-06T04:43:35.325Z,12.45
2023-05-06T04:46:05.833Z,11.38
2023-05-06T04:48:36.363Z,8.15
2023-05-06T04:51:07.355Z,15.35
2023-05-06T04:53:38.195Z,16.38
2023-05-06T04:56:10.822Z,7.45
2023-05-06T04:58:41.192Z,7.53
2023-05-06T05:01:12.561Z,9.02
2023-05-06T05:03:43.195Z,5.60
2023-05-06T05:06:14.223Z,7.82
2023-05-06T05:08:44.953Z,8.05
2023-05-06T05:11:17.371Z,7.25
2023-05-06T05:13:48.050Z,6.72
2023-05-06T05:16:18.601Z,16.42
2023-05-06T05:18:49.144Z,12.65
2023-05-06T05:21:19.629Z,14.45
2023-05-06T05:23:50.270Z,12.80
2023-05-06T05:26:22.717Z,14.85
2023-05-06T05:28:53.162Z,13.60
2023-05-06T05:31:23.712Z,10.52
2023-05-06T05:33:54.460Z,11.95
2023-05-06T05:36:28.550Z,13.40
2023-05-06T05:38:59.762Z,14.70
2023-05-06T05:41:38.710Z,8.02
2023-05-06T05:44:09.660Z,14.65
2023-05-06T05:46:40.247Z,9.30
2023-05-06T05:49:10.777Z,10.07
2023-05-06T05:51:41.315Z,9.27
2023-05-06T05:54:11.808Z,15.20
2023-05-06T05:56:43.970Z,13.80
2023-05-06T05:59:14.351Z,122.55
2023-05-06T06:01:44.724Z,90.53
2023-05-06T06:04:15.244Z,116.05
2023-05-06T06:06:45.776Z,22.27
2023-05-06T06:09:17.614Z,32.33
2023-05-06T06:11:49.819Z,60.67
2023-05-06T06:14:20.369Z,72.47
2023-05-06T06:17:06.603Z,24.98
2023-05-06T06:19:37.050Z,85.88
2023-05-06T06:22:07.479Z,44.67
2023-05-06T06:24:38.021Z,69.60
2023-05-06T06:27:10.492Z,47.13
2023-05-06T06:29:41.102Z,40.78
2023-05-06T06:32:11.627Z,16.40
2023-05-06T06:34:42.169Z,13.45
2023-05-06T06:37:13.625Z,34.13
2023-05-06T06:39:44.167Z,16.25
2023-05-06T06:42:16.972Z,16.40
2023-05-06T06:44:47.555Z,26.30
2023-05-06T06:47:18.108Z,19.80
2023-05-06T06:49:48.705Z,20.67
2023-05-06T06:52:19.244Z,19.02
2023-05-06T06:54:49.894Z,25.20
2023-05-06T06:57:22.139Z,14.52
2023-05-06T06:59:54.529Z,12.77
2023-05-06T07:02:25.049Z,31.88
2023-05-06T07:04:55.986Z,17.02
2023-05-06T07:07:26.532Z,10.95
2023-05-06T07:10:13.582Z,24.40
2023-05-06T07:12:45.723Z,17.38
2023-05-06T07:15:16.243Z,25.83
2023-05-06T07:17:46.829Z,22.15
2023-05-06T07:20:17.334Z,14.07
2023-05-06T07:22:50.427Z,12.73
2023-05-06T07:25:21.031Z,27.50
2023-05-06T07:27:53.161Z,16.70
2023-05-06T07:30:23.672Z,24.58
2023-05-06T07:32:54.301Z,24.45
2023-05-06T07:35:24.933Z,13.38
2023-05-06T07:37:55.393Z,24.98
2023-05-06T07:40:26.027Z,16.52
2023-05-06T07:42:58.179Z,40.58
2023-05-06T07:45:28.708Z,60.90
2023-05-06T07:47:59.371Z,42.47
2023-05-06T07:50:29.889Z,23.38
2023-05-06T07:53:00.995Z,16.15
2023-05-06T07:55:33.826Z,16.05
2023-05-06T07:58:07.134Z,23.15
2023-05-06T08:00:37.648Z,19.88
2023-05-06T08:03:08.351Z,13.70
2023-05-06T08:05:39.081Z,24.13
2023-05-06T08:08:09.607Z,24.50
2023-05-06T08:10:40.121Z,30.38
2023-05-06T08:13:12.528Z,36.47
2023-05-06T08:15:43.527Z,55.45
2023-05-06T08:18:21.867Z,28.27
2023-05-06T08:20:53.183Z,19.38
2023-05-06T08:23:24.007Z,21.20
2023-05-06T08:25:54.578Z,24.63
2023-05-06T08:28:26.809Z,21.73
2023-05-06T08:30:57.367Z,7.78
2023-05-06T08:33:28.096Z,15.98
2023-05-06T08:35:58.933Z,39.15
2023-05-06T08:38:29.747Z,22.70
2023-05-06T08:41:02.895Z,21.70
2023-05-06T08:43:38.028Z,35.58
2023-05-06T08:46:08.799Z,40.95
2023-05-06T08:48:39.719Z,54.75
2023-05-06T08:51:10.917Z,38.33
2023-05-06T08:53:45.181Z,28.13
2023-05-06T08:56:17.756Z,55.78
2023-05-06T08:58:51.542Z,44.85
2023-05-06T09:01:23.089Z,31.85
2023-05-06T09:03:54.280Z,21.05
2023-05-06T09:06:29.304Z,17.65
2023-05-06T09:08:59.913Z,14.77
2023-05-06T09:11:32.705Z,16.10
2023-05-06T09:14:22.337Z,15.73
2023-05-06T09:19:26.553Z,11.52
2023-05-06T09:21:57.585Z,12.27
2023-05-06T09:24:28.336Z,12.55
2023-05-06T09:26:59.715Z,20.73
2023-05-06T09:29:31.882Z,17.52
2023-05-06T09:32:11.222Z,19.23
2023-05-06T09:34:42.891Z,12.98
2023-05-06T09:37:13.471Z,15.52
2023-05-06T09:39:43.999Z,14.18
2023-05-06T09:42:15.328Z,21.80
2023-05-06T09:44:47.493Z,13.48
2023-05-06T09:47:18.206Z,13.35
2023-05-06T09:49:48.909Z,21.52
2023-05-06T09:52:20.288Z,10.63
2023-05-06T09:54:52.993Z,11.63
2023-05-06T09:57:25.317Z,12.27
2023-05-06T09:59:58.282Z,12.85
2023-05-06T10:02:30.271Z,13.05
2023-05-06T10:05:05.410Z,17.45
2023-05-06T10:07:36.871Z,23.55
2023-05-06T10:10:09.610Z,25.23
2023-05-06T10:12:40.326Z,21.33
2023-05-06T10:15:13.329Z,30.88
2023-05-06T10:17:48.336Z,24.27
2023-05-06T10:20:20.526Z,18.30
2023-05-06T10:23:02.608Z,15.10
2023-05-06T10:25:43.351Z,10.98
2023-05-06T10:28:24.061Z,11.30
2023-05-06T10:31:03.638Z,15.70
2023-05-06T10:33:34.324Z,11.50
2023-05-06T10:36:16.468Z,18.60
2023-05-06T10:38:50.066Z,22.85
2023-05-06T10:41:24.588Z,25.38
2023-05-06T10:44:00.288Z,17.48
2023-05-06T10:46:41.826Z,20.65
2023-05-06T10:49:21.810Z,20.40
2023-05-06T10:52:11.748Z,12.93
2023-05-06T10:54:55.802Z,23.27
2023-05-06T10:57:33.544Z,19.35
2023-05-06T11:00:06.832Z,22.20
2023-05-06T11:02:41.698Z,19.95
2023-05-06T11:05:14.017Z,15.38
2023-05-06T11:07:46.061Z,25.23
2023-05-06T11:10:17.514Z,21.27
2023-05-06T11:12:51.029Z,20.80
2023-05-06T11:15:29.052Z,17.50
2023-05-06T11:18:02.878Z,19.20
2023-05-06T11:20:34.355Z,22.85
2023-05-06T11:23:06.176Z,16.08
2023-05-06T11:25:44.629Z,25.48
2023-05-06T11:28:17.348Z,29.00
2023-05-06T11:30:58.393Z,15.10
2023-05-06T11:33:35.419Z,15.10
2023-05-06T11:36:07.604Z,27.08
2023-05-06T11:38:46.869Z,19.13
2023-05-06T11:41:18.590Z,18.38
2023-05-06T11:43:51.450Z,12.40
2023-05-06T11:46:23.775Z,12.52
2023-05-06T11:48:57.253Z,15.65
2023-05-06T11:51:28.277Z,14.30
2023-05-06T11:54:08.637Z,16.90
2023-05-06T11:56:55.275Z,33.15
2023-05-06T11:59:33.663Z,29.52
2023-05-06T12:02:06.225Z,16.30
2023-05-06T12:04:46.610Z,17.52
2023-05-06T12:07:18.764Z,16.98
2023-05-06T12:09:52.234Z,20.88
2023-05-06T12:12:27.417Z,16.00
2023-05-06T12:14:59.213Z,22.85
2023-05-06T12:17:30.890Z,43.63
2023-05-06T12:20:04.157Z,35.95
2023-05-06T12:22:34.948Z,15.57
2023-05-06T12:25:17.288Z,16.00
2023-05-06T12:27:49.501Z,10.65
2023-05-06T12:30:32.689Z,15.07
2023-05-06T12:33:07.289Z,9.40
2023-05-06T12:35:39.715Z,12.60
2023-05-06T12:38:15.224Z,12.40
2023-05-06T12:40:46.791Z,9.63
2023-05-06T12:43:17.399Z,10.88
2023-05-06T12:46:05.010Z,9.32
2023-05-06T12:48:35.703Z,8.80
2023-05-06T12:54:01.307Z,11.02
2023-05-06T12:56:34.831Z,10.05
2023-05-06T12:59:06.113Z,9.57
2023-05-06T13:01:40.095Z,9.25
2023-05-06T13:04:11.328Z,7.78
2023-05-06T13:06:41.869Z,7.40
2023-05-06T13:09:15.338Z,8.48
2023-05-06T13:11:47.206Z,13.95
2023-05-06T13:14:19.025Z,18.50
2023-05-06T13:16:49.745Z,31.70
2023-05-06T13:19:31.692Z,9.85
2023-05-06T13:22:03.947Z,10.63
2023-05-06T13:24:36.382Z,11.00
2023-05-06T13:27:07.169Z,13.38
2023-05-06T13:29:38.470Z,13.80
2023-05-06T13:32:09.305Z,10.07
2023-05-06T13:34:40.886Z,9.27
2023-05-06T13:37:11.473Z,10.60
2023-05-06T13:39:44.535Z,9.15
2023-05-06T13:42:15.186Z,11.57
2023-05-06T13:44:45.750Z,13.15
2023-05-06T13:47:16.216Z,10.77
2023-05-06T13:49:46.881Z,8.60
2023-05-06T13:52:17.604Z,8.45
2023-05-06T13:54:49.796Z,7.82
2023-05-06T13:57:20.352Z,11.32
2023-05-06T13:59:50.854Z,9.27
2023-05-06T14:02:23.501Z,10.50
2023-05-06T14:04:54.082Z,11.27
2023-05-06T14:07:27.209Z,12.02
2023-05-06T14:10:01.878Z,9.60
2023-05-06T14:12:40.066Z,11.30
2023-05-06T14:15:11.287Z,7.85
2023-05-06T14:17:42.180Z,8.23
2023-05-06T14:20:13.610Z,8.20
2023-05-06T14:22:47.466Z,8.73
2023-05-06T14:25:21.874Z,8.35
2023-05-06T14:27:57.769Z,10.13
2023-05-06T14:30:28.567Z,6.32
2023-05-06T14:33:01.911Z,7.95
2023-05-06T14:35:32.508Z,9.93
2023-05-06T14:38:03.049Z,9.00
2023-05-06T14:40:42.413Z,8.13
2023-05-06T14:43:12.862Z,13.50
2023-05-06T14:45:45.729Z,7.55
2023-05-06T14:48:21.175Z,9.48
2023-05-06T14:50:57.212Z,8.02
2023-05-06T14:53:27.774Z,8.05
2023-05-06T14:55:59.854Z,9.48
2023-05-06T14:58:32.994Z,7.28
2023-05-06T15:01:03.570Z,7.80
2023-05-06T15:03:34.114Z,6.82
2023-05-06T15:06:06.812Z,12.23
2023-05-06T15:08:37.939Z,11.90
2023-05-06T15:11:10.345Z,8.35
2023-05-06T15:13:42.968Z,7.93
2023-05-06T15:16:13.908Z,8.48
2023-05-06T15:18:47.031Z,7.72
2023-05-06T15:21:18.339Z,6.70
2023-05-06T15:23:52.645Z,10.93
2023-05-06T15:26:24.926Z,6.80
2023-05-06T15:28:55.550Z,7.85
2023-05-06T15:31:26.286Z,8.70
2023-05-06T15:33:58.849Z,11.00
2023-05-06T15:36:31.022Z,7.57
2023-05-06T15:39:04.745Z,7.63
2023-05-06T15:41:39.354Z,9.93
2023-05-06T15:44:15.955Z,8.13
2023-05-06T15:46:51.702Z,9.57
2023-05-06T15:49:45.461Z,8.43
2023-05-06T15:52:14.517Z,11.43
2023-05-06T15:54:50.961Z,6.60
2023-05-06T15:57:23.171Z,9.10
2023-05-06T15:59:53.707Z,7.80
2023-05-06T16:02:33.157Z,7.80
2023-05-06T16:05:08.520Z,8.13
2023-05-06T16:07:41.192Z,13.40
2023-05-06T16:10:17.736Z,7.45
2023-05-06T16:12:52.914Z,5.93
2023-05-06T16:15:23.994Z,11.20
2023-05-06T16:17:54.652Z,10.75
2023-05-06T16:20:25.242Z,7.30
2023-05-06T16:22:56.247Z,8.30
2023-05-06T16:25:28.948Z,9.30
2023-05-06T16:28:01.362Z,8.55
2023-05-06T16:30:32.361Z,10.10
2023-05-06T16:33:03.065Z,8.98
2023-05-06T16:35:42.790Z,11.10
2023-05-06T16:38:19.187Z,5.35
2023-05-06T16:40:52.110Z,8.90
2023-05-06T16:43:24.156Z,6.72
2023-05-06T16:45:57.126Z,8.48
2023-05-06T16:48:29.520Z,8.27
2023-05-06T16:51:03.270Z,8.13
2023-05-06T16:53:36.808Z,6.88
2023-05-06T16:56:07.655Z,6.25
2023-05-06T16:58:42.983Z,9.25
2023-05-06T17:01:13.652Z,13.82
2023-05-06T17:03:44.376Z,7.57
2023-05-06T17:06:15.170Z,8.82
2023-05-06T17:08:45.711Z,7.90
2023-05-06T17:11:18.110Z,8.30
2023-05-06T17:13:50.725Z,9.85
2023-05-06T17:16:24.079Z,9.25
2023-05-06T17:18:59.068Z,6.50
2023-05-06T17:21:32.259Z,7.35
2023-05-06T17:24:05.635Z,9.05
2023-05-06T17:26:36.867Z,5.82
2023-05-06T17:29:10.426Z,7.03
2023-05-06T17:31:45.585Z,6.43
2023-05-06T17:36:52.895Z,8.82
2023-05-06T17:39:27.303Z,7.13
2023-05-06T17:42:02.019Z,6.65
2023-05-06T17:44:38.270Z,7.50
2023-05-06T17:47:11.754Z,7.28
2023-05-06T17:49:44.342Z,9.93
2023-05-06T17:52:18.646Z,10.18
2023-05-06T17:55:05.809Z,10.88
2023-05-06T17:57:46.743Z,8.75
2023-05-06T18:00:22.188Z,7.40
2023-05-06T18:02:58.098Z,13.45
2023-05-06T18:05:28.747Z,7.68
2023-05-06T18:08:06.496Z,8.00
2023-05-06T18:10:36.966Z,7.22
2023-05-06T18:13:14.333Z,6.03
2023-05-06T18:15:47.796Z,7.82
2023-05-06T18:18:20.979Z,9.00
2023-05-06T18:20:55.574Z,7.07
2023-05-06T18:23:26.039Z,6.60
2023-05-06T18:25:59.560Z,9.55
2023-05-06T18:28:29.998Z,10.80
2023-05-06T18:31:02.232Z,8.63
2023-05-06T18:33:45.021Z,13.32
2023-05-06T18:36:20.830Z,9.40
2023-05-06T18:38:51.940Z,12.32
2023-05-06T18:41:22.644Z,10.07
2023-05-06T18:43:53.243Z,7.97
2023-05-06T18:46:25.473Z,5.43
2023-05-06T18:48:56.826Z,6.65
2023-05-06T18:51:27.478Z,6.90
2023-05-06T18:53:58.025Z,6.80
2023-05-06T18:56:33.487Z,8.20
2023-05-06T18:59:04.018Z,8.88
2023-05-06T19:01:36.225Z,8.27
2023-05-06T19:04:06.972Z,10.05
2023-05-06T19:06:39.195Z,7.18
2023-05-06T19:09:09.638Z,6.13
2023-05-06T19:11:40.053Z,8.23
2023-05-06T19:14:10.404Z,8.38
2023-05-06T19:16:42.646Z,7.22
2023-05-06T19:19:13.209Z,8.85
2023-05-06T19:21:43.625Z,6.95
2023-05-06T19:24:14.083Z,8.75
2023-05-06T19:26:44.505Z,7.22
2023-05-06T19:29:15.471Z,9.13
2023-05-06T19:31:47.661Z,7.78
2023-05-06T19:34:18.198Z,8.40
2023-05-06T19:36:48.720Z,7.75
2023-05-06T19:39:19.246Z,9.07
2023-05-06T19:41:49.753Z,11.70
2023-05-06T19:44:20.187Z,9.85
2023-05-06T19:46:56.419Z,10.00
2023-05-06T19:49:26.964Z,7.55
2023-05-06T19:51:57.396Z,8.90
2023-05-06T19:54:27.827Z,10.88
2023-05-06T19:56:58.211Z,8.52
2023-05-06T19:59:28.736Z,10.55
2023-05-06T20:02:03.130Z,6.97
2023-05-06T20:04:34.388Z,10.32
2023-05-06T20:07:07.887Z,9.07
2023-05-06T20:09:38.331Z,6.13
2023-05-06T20:12:09.594Z,8.68
2023-05-06T20:14:40.061Z,5.97
2023-05-06T20:17:12.283Z,7.05
2023-05-06T20:19:42.657Z,4.80
2023-05-06T20:22:13.169Z,6.57
2023-05-06T20:24:45.076Z,8.15
2023-05-06T20:27:15.651Z,6.57
2023-05-06T20:29:46.401Z,11.82
2023-05-06T20:32:18.732Z,7.75
2023-05-06T20:34:49.333Z,10.18
2023-05-06T20:37:20.914Z,10.55
2023-05-06T20:39:51.320Z,11.50
2023-05-06T20:42:22.709Z,10.65
2023-05-06T20:44:54.183Z,11.05
2023-05-06T20:47:26.382Z,8.38
2023-05-06T20:49:57.573Z,12.00
2023-05-06T20:52:28.285Z,11.50
2023-05-06T20:54:58.939Z,10.63
2023-05-06T20:57:29.527Z,7.72
2023-05-06T21:00:00.087Z,8.30
2023-05-06T21:02:40.026Z,7.22
2023-05-06T21:05:12.793Z,6.72
2023-05-06T21:07:43.621Z,8.50
2023-05-06T21:10:15.239Z,9.15
2023-05-06T21:12:53.323Z,10.10
2023-05-06T21:15:23.847Z,7.38
2023-05-06T21:17:56.059Z,8.52
2023-05-06T21:20:26.570Z,8.18
2023-05-06T21:22:56.949Z,7.70
2023-05-06T21:25:27.726Z,9.02
2023-05-06T21:27:59.238Z,6.30
2023-05-06T21:30:30.133Z,7.38
2023-05-06T21:33:03.167Z,8.52
2023-05-06T21:35:33.829Z,8.05
2023-05-06T21:38:05.888Z,5.30
2023-05-06T21:40:36.343Z,9.70
2023-05-06T21:43:07.029Z,7.63
2023-05-06T21:45:37.488Z,7.90
2023-05-06T21:48:10.102Z,5.15
2023-05-06T21:50:40.793Z,7.00
2023-05-06T21:53:12.269Z,6.90
2023-05-06T21:55:44.870Z,8.32
2023-05-06T21:58:16.089Z,6.00
2023-05-06T22:00:47.088Z,4.78
2023-05-06T22:03:19.244Z,4.05
2023-05-06T22:05:50.064Z,5.20
2023-05-06T22:08:20.626Z,4.43
2023-05-06T22:10:51.242Z,5.97
2023-05-06T22:13:23.553Z,5.20
2023-05-06T22:15:55.470Z,6.00
2023-05-06T22:18:28.822Z,5.82
2023-05-06T22:20:59.517Z,4.40
2023-05-06T22:23:30.053Z,4.20
2023-05-06T22:26:00.608Z,7.00
2023-05-06T22:28:31.186Z,6.03
2023-05-06T22:31:01.780Z,3.92
2023-05-06T22:33:33.845Z,5.00
2023-05-06T22:36:04.305Z,4.40
2023-05-06T22:38:34.825Z,5.47
2023-05-06T22:41:05.305Z,5.82
2023-05-06T22:43:35.779Z,7.45
2023-05-06T22:46:13.009Z,5.72
2023-05-06T22:48:46.064Z,4.22
2023-05-06T22:51:18.190Z,4.68
2023-05-06T22:53:49.321Z,5.45
2023-05-06T22:56:20.705Z,5.65
2023-05-06T22:58:51.274Z,5.63
2023-05-06T23:01:21.893Z,3.30
2023-05-06T23:03:54.033Z,4.60
2023-05-06T23:06:26.570Z,7.85
2023-05-06T23:08:57.156Z,8.23
2023-05-06T23:11:28.021Z,6.72
2023-05-06T23:13:58.524Z,6.05
2023-05-06T23:16:30.282Z,3.97
2023-05-06T23:19:02.630Z,6.00
2023-05-06T23:21:33.286Z,4.97
2023-05-06T23:24:03.823Z,7.53
2023-05-06T23:26:34.303Z,5.63
2023-05-06T23:29:04.768Z,5.40
2023-05-06T23:31:37.514Z,5.47
2023-05-06T23:34:09.732Z,3.45
2023-05-06T23:36:40.245Z,3.35
2023-05-06T23:39:12.389Z,4.40
2023-05-06T23:41:43.068Z,3.22
2023-05-06T23:44:13.563Z,7.55
2023-05-06T23:46:45.046Z,6.10
2023-05-06T23:49:17.609Z,5.00
2023-05-06T23:51:48.091Z,3.83
2023-05-06T23:54:18.532Z,4.93
2023-05-06T23:56:49.061Z,12.40
2023-05-06T23:59:19.465Z,7.65
